Time;durP1;ratioP1;P1;durP2;ratioP2;P2;SDS_P1;SDS_P2;PMS_P1;PMS_P2;Temp;Humidity;BMP_temperature;BMP_pressure;BME280_temperature;BME280_humidity;BME280_pressure;Samples;Min_cycle;Max_cycle;Signal;HPM_P1;HPM_P2
2023/10/30 00:01:15;;;;;;;6.00;1.50;;;;;;;9.60;100.00;99609.50;4901159;28;20044;-77
2023/10/30 00:03:44;;;;;;;7.22;1.83;;;;;;;9.59;100.00;99619.19;4899124;29;20047;-77
2023/10/30 00:06:12;;;;;;;7.00;1.48;;;;;;;9.60;100.00;99613.00;4917953;28;20047;-77
2023/10/30 00:08:40;;;;;;;7.10;1.45;;;;;;;9.59;100.00;99615.69;4895682;29;20059;-77
2023/10/30 00:11:07;;;;;;;9.55;1.70;;;;;;;9.59;100.00;99624.44;4924256;29;20428;-77
2023/10/30 00:13:35;;;;;;;8.05;2.00;;;;;;;9.57;100.00;99620.97;4918828;28;20039;-77
2023/10/30 00:16:02;;;;;;;5.90;1.63;;;;;;;9.56;100.00;99629.72;4911461;29;20063;-77
2023/10/30 00:18:30;;;;;;;6.28;1.58;;;;;;;9.54;100.00;99635.00;4903592;29;20058;-77
2023/10/30 00:20:57;;;;;;;4.53;1.63;;;;;;;9.52;100.00;99636.78;4915127;29;20043;-77
2023/10/30 00:23:26;;;;;;;4.03;1.45;;;;;;;9.51;100.00;99628.94;4919736;29;20055;-76
2023/10/30 00:25:54;;;;;;;6.45;1.92;;;;;;;9.49;100.00;99639.47;4930545;29;20060;-78
2023/10/30 00:28:22;;;;;;;9.57;2.03;;;;;;;9.46;100.00;99634.22;4915392;29;20477;-76
2023/10/30 00:30:49;;;;;;;4.38;1.60;;;;;;;9.45;100.00;99642.13;4886067;29;20048;-76
2023/10/30 00:33:17;;;;;;;11.32;1.58;;;;;;;9.42;100.00;99642.19;4916043;29;20051;-75
2023/10/30 00:35:45;;;;;;;4.75;1.35;;;;;;;9.40;100.00;99644.81;4914070;29;20425;-77
2023/10/30 00:38:12;;;;;;;9.07;1.60;;;;;;;9.39;100.00;99644.84;4924224;29;20050;-77
2023/10/30 00:40:39;;;;;;;6.68;1.17;;;;;;;9.38;100.00;99638.72;4911995;29;20047;-77
2023/10/30 00:43:07;;;;;;;4.57;1.10;;;;;;;9.37;100.00;99639.59;4933863;29;20043;-78
2023/10/30 00:45:34;;;;;;;6.90;1.40;;;;;;;9.35;100.00;99644.84;4908986;28;20056;-77
2023/10/30 00:48:01;;;;;;;5.55;1.40;;;;;;;9.33;100.00;99649.25;4920653;28;20055;-77
2023/10/30 00:50:32;;;;;;;5.45;1.17;;;;;;;9.33;100.00;99651.88;4921669;29;20489;-78
2023/10/30 00:53:00;;;;;;;;;;;;;;;9.33;100.00;99651.88;4914487;29;20039;-77
2023/10/30 00:55:27;;;;;;;5.13;1.75;;;;;;;9.33;100.00;99667.66;4936345;28;19937;-77
2023/10/30 00:57:55;;;;;;;7.45;2.00;;;;;;;9.33;100.00;99662.41;4915815;29;20548;-77
2023/10/30 01:00:25;;;;;;;7.95;1.60;;;;;;;9.32;100.00;99671.19;4896108;29;20047;-77
2023/10/30 01:02:52;;;;;;;2.92;1.20;;;;;;;9.33;100.00;99674.69;4918132;29;20058;-77
2023/10/30 01:05:20;;;;;;;5.00;1.38;;;;;;;9.29;100.00;99676.47;4908376;29;20105;-77
2023/10/30 01:07:47;;;;;;;4.55;1.67;;;;;;;9.28;100.00;99674.75;4929930;29;20475;-77
2023/10/30 01:10:15;;;;;;;8.30;1.70;;;;;;;9.26;100.00;99684.41;4921363;29;20059;-77
2023/10/30 01:12:42;;;;;;;5.25;1.35;;;;;;;9.25;100.00;99692.31;4929903;29;20460;-77
2023/10/30 01:15:10;;;;;;;5.88;1.40;;;;;;;9.24;100.00;99682.66;4922590;29;20519;-77
2023/10/30 01:17:39;;;;;;;6.07;1.63;;;;;;;9.20;100.00;99681.81;4881711;29;20515;-76
2023/10/30 01:20:07;;;;;;;4.53;1.35;;;;;;;9.20;100.00;99687.06;4931711;29;20047;-77
2023/10/30 01:22:35;;;;;;;6.95;1.20;;;;;;;9.17;100.00;99692.38;4920008;29;20062;-76
2023/10/30 01:25:03;;;;;;;3.58;1.20;;;;;;;9.16;100.00;99685.38;4919771;28;20507;-77
2023/10/30 01:27:32;;;;;;;4.97;1.55;;;;;;;9.14;100.00;99682.75;4931983;29;20065;-78
2023/10/30 01:30:00;;;;;;;6.47;1.83;;;;;;;9.13;100.00;99682.75;4915325;29;20456;-77
2023/10/30 01:32:27;;;;;;;5.78;1.38;;;;;;;9.10;100.00;99693.31;4891264;29;20059;-78
2023/10/30 01:34:54;;;;;;;4.85;1.70;;;;;;;9.09;100.00;99700.34;4898490;29;20055;-77
2023/10/30 01:37:22;;;;;;;3.92;1.20;;;;;;;9.06;100.00;99695.09;4905222;29;20047;-77
2023/10/30 01:39:49;;;;;;;6.18;1.30;;;;;;;9.05;100.00;99703.00;4936176;28;20051;-77
2023/10/30 01:42:17;;;;;;;7.70;1.50;;;;;;;9.04;100.00;99693.38;4932931;29;20054;-77
2023/10/30 01:44:58;;;;;;;3.10;1.30;;;;;;;9.01;100.00;99690.78;4925002;29;20066;-77
2023/10/30 01:47:25;;;;;;;9.70;1.45;;;;;;;9.00;100.00;99699.53;4912208;28;20048;-76
2023/10/30 01:49:58;;;;;;;3.72;1.20;;;;;;;8.97;100.00;99687.31;4904205;29;20044;-76
2023/10/30 01:52:28;;;;;;;8.02;1.85;;;;;;;8.95;100.00;99697.81;4905976;29;20051;-77
2023/10/30 01:54:56;;;;;;;3.75;1.35;;;;;;;8.93;100.00;99696.09;4929828;29;20054;-77
2023/10/30 01:57:25;;;;;;;5.57;1.58;;;;;;;8.94;100.00;99695.19;4919848;29;20051;-77
2023/10/30 01:59:55;;;;;;;6.40;1.58;;;;;;;8.93;100.00;99709.22;4917811;29;20069;-77
2023/10/30 02:02:25;;;;;;;2.45;1.10;;;;;;;8.92;100.00;99708.38;4943083;28;20047;-77
2023/10/30 02:04:53;;;;;;;3.05;1.52;;;;;;;8.91;100.00;99709.25;4907330;29;20045;-77
2023/10/30 02:07:20;;;;;;;2.75;1.27;;;;;;;8.90;100.00;99704.88;4932166;29;20063;-77
2023/10/30 02:09:49;;;;;;;2.80;1.20;;;;;;;8.89;100.00;99720.66;4919223;29;20050;-77
2023/10/30 02:12:17;;;;;;;2.60;1.25;;;;;;;8.88;100.00;99725.03;4938409;28;20046;-76
2023/10/30 02:14:44;;;;;;;5.07;1.60;;;;;;;8.86;100.00;99728.56;4914110;29;20043;-78
2023/10/30 02:17:12;;;;;;;5.05;1.48;;;;;;;8.86;100.00;99731.19;4921699;29;20062;-77
2023/10/30 02:19:39;;;;;;;3.35;1.52;;;;;;;8.84;100.00;99732.94;4884610;29;20428;-76
2023/10/30 02:22:07;;;;;;;3.13;1.50;;;;;;;8.84;100.00;99725.06;4931027;29;20460;-77
2023/10/30 02:24:34;;;;;;;3.72;1.38;;;;;;;8.84;100.00;99728.56;4906731;29;20047;-76
2023/10/30 02:27:02;;;;;;;4.72;1.83;;;;;;;8.83;100.00;99729.47;4902596;29;20070;-77
2023/10/30 02:29:29;;;;;;;6.10;1.50;;;;;;;8.85;100.00;99729.44;4928266;29;20051;-76
2023/10/30 02:31:57;;;;;;;6.32;1.55;;;;;;;8.85;100.00;99732.94;4915394;29;20058;-76
2023/10/30 02:34:24;;;;;;;5.18;1.35;;;;;;;8.85;100.00;99732.94;4915059;28;20039;-76
2023/10/30 02:36:54;;;;;;;6.18;1.73;;;;;;;8.84;100.00;99735.56;4902149;29;20047;-77
2023/10/30 02:39:22;;;;;;;10.07;1.80;;;;;;;8.82;100.00;99735.59;4921346;28;20062;-78
2023/10/30 02:41:49;;;;;;;3.63;1.67;;;;;;;8.80;100.00;99731.22;4887034;29;20062;-77
2023/10/30 02:44:18;;;;;;;4.00;2.05;;;;;;;8.80;100.00;99725.97;4930907;29;20390;-77
2023/10/30 02:46:45;;;;;;;6.55;2.28;;;;;;;8.78;100.00;99726.00;4927706;29;20064;-77
2023/10/30 02:49:12;;;;;;;5.50;1.88;;;;;;;8.76;100.00;99735.63;4900017;29;20046;-78
2023/10/30 02:51:40;;;;;;;6.10;1.70;;;;;;;8.75;100.00;99726.00;4870268;29;20661;-77
2023/10/30 02:54:07;;;;;;;6.80;1.80;;;;;;;8.74;100.00;99724.28;4904939;29;20043;-79
2023/10/30 02:56:35;;;;;;;6.85;2.10;;;;;;;8.73;100.00;99733.03;4905490;28;20052;-77
2023/10/30 02:59:02;;;;;;;4.65;1.90;;;;;;;8.73;100.00;99743.53;4944922;28;20050;-77
2023/10/30 03:01:29;;;;;;;5.35;2.47;;;;;;;8.71;100.00;99733.03;4929992;29;20055;-76
2023/10/30 03:03:57;;;;;;;4.90;1.98;;;;;;;8.72;100.00;99739.16;4928447;29;20559;-77
2023/10/30 03:06:25;;;;;;;5.50;1.88;;;;;;;8.71;100.00;99729.53;4890549;29;20043;-77
2023/10/30 03:08:53;;;;;;;4.20;1.70;;;;;;;8.71;100.00;99737.41;4903933;28;20055;-78
2023/10/30 03:11:20;;;;;;;7.90;1.98;;;;;;;8.71;100.00;99740.03;4921786;28;20049;-77
2023/10/30 03:13:47;;;;;;;6.20;1.77;;;;;;;8.71;100.00;99740.91;4898714;29;20047;-77
2023/10/30 03:16:17;;;;;;;7.95;2.45;;;;;;;8.72;100.00;99736.53;4929014;29;20551;-76
2023/10/30 03:18:45;;;;;;;6.88;2.50;;;;;;;8.72;100.00;99741.78;4933554;29;20058;-76
2023/10/30 03:21:12;;;;;;;7.75;1.60;;;;;;;8.71;100.00;99735.66;4858041;29;20055;-76
2023/10/30 03:23:40;;;;;;;6.70;1.95;;;;;;;8.72;100.00;99741.78;4926272;29;20051;-76
2023/10/30 03:26:07;;;;;;;9.27;2.10;;;;;;;8.71;100.00;99740.03;4902812;29;20428;-75
2023/10/30 03:28:34;;;;;;;5.47;1.70;;;;;;;8.72;100.00;99749.69;4902561;29;20066;-76
2023/10/30 03:31:09;;;;;;;5.55;1.70;;;;;;;8.71;100.00;99755.81;4927105;29;20043;-76
2023/10/30 03:33:37;;;;;;;4.45;1.90;;;;;;;8.72;100.00;99753.16;4911954;29;20524;-76
2023/10/30 03:36:05;;;;;;;15.40;2.53;;;;;;;8.71;100.00;99755.81;4921889;29;20386;-77
2023/10/30 03:38:32;;;;;;;10.85;2.45;;;;;;;8.71;100.00;99761.06;4906710;28;20408;-76
2023/10/30 03:41:00;;;;;;;8.82;2.35;;;;;;;8.72;100.00;99747.06;4915499;29;20036;-77
2023/10/30 03:43:27;;;;;;;6.50;1.85;;;;;;;8.74;100.00;99756.66;4914218;29;20059;-77
2023/10/30 03:45:55;;;;;;;9.65;2.00;;;;;;;8.76;100.00;99759.28;4897200;29;20058;-77
2023/10/30 03:48:22;;;;;;;7.32;1.88;;;;;;;8.78;100.00;99757.50;4928276;29;20421;-76
2023/10/30 03:50:50;;;;;;;12.55;3.08;;;;;;;8.78;100.00;99762.75;4932359;29;20047;-76
2023/10/30 03:53:18;;;;;;;8.93;1.85;;;;;;;8.77;100.00;99756.66;4892401;29;20058;-76
2023/10/30 03:55:45;;;;;;;7.60;1.88;;;;;;;8.78;100.00;99765.38;4920969;28;20914;-76
2023/10/30 03:58:12;;;;;;;9.40;2.63;;;;;;;8.76;100.00;99768.03;4910149;29;20047;-76
2023/10/30 04:00:41;;;;;;;10.40;3.13;;;;;;;8.76;100.00;99768.03;4928773;29;20448;-76
2023/10/30 04:03:08;;;;;;;13.93;2.75;;;;;;;8.76;100.00;99767.16;4932758;29;20054;-77
2023/10/30 04:05:38;;;;;;;5.68;1.85;;;;;;;8.75;100.00;99766.28;4930720;29;20051;-77
2023/10/30 04:08:05;;;;;;;6.03;1.90;;;;;;;8.74;100.00;99774.19;4880986;28;20071;-77
2023/10/30 04:10:32;;;;;;;9.40;2.08;;;;;;;8.72;100.00;99771.56;4931566;29;20051;-76
2023/10/30 04:13:00;;;;;;;7.45;2.00;;;;;;;8.72;100.00;99773.31;4928946;28;20058;-76
2023/10/30 04:15:27;;;;;;;7.82;2.53;;;;;;;8.71;100.00;99789.94;4912271;29;20051;-77
2023/10/30 04:17:56;;;;;;;10.75;2.58;;;;;;;8.71;100.00;99793.44;4930127;29;20047;-77
2023/10/30 04:20:23;;;;;;;10.60;2.28;;;;;;;8.71;100.00;99795.19;4913091;29;20043;-77
2023/10/30 04:22:52;;;;;;;4.90;1.83;;;;;;;8.71;100.00;99795.19;4908624;28;20058;-77
2023/10/30 04:25:19;;;;;;;9.20;2.47;;;;;;;8.70;100.00;99793.47;4895271;29;20062;-76
2023/10/30 04:27:47;;;;;;;9.73;2.20;;;;;;;8.72;100.00;99807.47;4918540;28;20552;-75
2023/10/30 04:30:14;;;;;;;9.70;2.60;;;;;;;8.70;100.00;99809.22;4907992;29;20080;-77
2023/10/30 04:32:42;;;;;;;8.48;2.00;;;;;;;8.70;100.00;99809.22;4916916;29;20062;-77
2023/10/30 04:35:09;;;;;;;10.90;3.53;;;;;;;8.69;100.00;99804.84;4923022;29;20054;-77
2023/10/30 04:37:37;;;;;;;10.45;1.90;;;;;;;8.69;100.00;99810.09;4933161;29;20498;-77
2023/10/30 04:40:04;;;;;;;15.27;2.45;;;;;;;8.68;100.00;99818.88;4860762;29;20702;-77
2023/10/30 04:42:32;;;;;;;8.63;2.25;;;;;;;8.69;100.00;99828.47;4928796;29;20425;-77
2023/10/30 04:44:59;;;;;;;8.38;2.85;;;;;;;8.69;100.00;99823.22;4914865;29;20047;-77
2023/10/30 04:47:26;;;;;;;10.15;2.20;;;;;;;8.67;100.00;99817.97;4950035;29;20058;-76
2023/10/30 04:49:54;;;;;;;7.20;2.30;;;;;;;8.68;100.00;99824.13;4899091;29;20066;-76
2023/10/30 04:52:23;;;;;;;12.73;3.03;;;;;;;8.68;100.00;99825.00;4948998;29;20031;-77
2023/10/30 04:54:50;;;;;;;7.53;2.53;;;;;;;8.68;100.00;99821.50;4891625;29;20040;-77
2023/10/30 04:57:18;;;;;;;8.40;1.90;;;;;;;8.68;100.00;99816.25;4921444;28;20417;-77
2023/10/30 04:59:45;;;;;;;8.73;2.08;;;;;;;8.68;100.00;99808.38;4899126;28;20508;-76
2023/10/30 05:02:13;;;;;;;11.13;2.22;;;;;;;8.68;100.00;99808.38;4906067;29;20050;-77
2023/10/30 05:04:40;;;;;;;8.50;2.03;;;;;;;8.68;100.00;99795.25;4891843;29;20409;-76
2023/10/30 05:07:08;;;;;;;7.10;2.45;;;;;;;8.68;100.00;99803.13;4889970;29;20047;-77
2023/10/30 05:09:36;;;;;;;10.48;2.65;;;;;;;8.68;100.00;99797.84;4948767;29;20047;-77
2023/10/30 05:12:03;;;;;;;16.80;2.75;;;;;;;8.68;100.00;99803.13;4882255;28;20047;-78
2023/10/30 05:14:31;;;;;;;12.27;2.63;;;;;;;8.69;100.00;99807.47;4932702;29;20054;-77
2023/10/30 05:16:58;;;;;;;10.45;2.85;;;;;;;8.69;100.00;99791.72;4886432;29;20516;-76
2023/10/30 05:19:26;;;;;;;7.13;2.17;;;;;;;8.69;100.00;99797.81;4896927;28;20042;-76
2023/10/30 05:21:53;;;;;;;11.93;2.22;;;;;;;8.68;100.00;99797.84;4917387;28;20043;-77
2023/10/30 05:24:23;;;;;;;10.25;3.00;;;;;;;8.68;100.00;99798.72;4908988;28;20062;-77
2023/10/30 05:26:52;;;;;;;11.25;2.05;;;;;;;8.67;100.00;99806.59;4853838;28;20055;-77
2023/10/30 05:29:19;;;;;;;9.75;2.40;;;;;;;8.66;100.00;99800.50;4936290;28;20050;-76
2023/10/30 05:31:47;;;;;;;7.15;1.90;;;;;;;8.65;100.00;99797.88;4892387;28;20062;-77
2023/10/30 05:34:14;;;;;;;9.73;2.00;;;;;;;8.65;100.00;99805.75;4915017;29;20420;-77
2023/10/30 05:36:41;;;;;;;8.40;1.42;;;;;;;8.63;100.00;99792.63;4924274;29;20075;-77
2023/10/30 05:39:09;;;;;;;11.45;1.92;;;;;;;8.64;100.00;99803.97;4942473;28;20047;-77
2023/10/30 05:41:37;;;;;;;9.23;1.95;;;;;;;8.63;100.00;99803.13;4878630;29;20843;-77
2023/10/30 05:44:04;;;;;;;11.60;2.25;;;;;;;8.64;100.00;99804.88;4906244;29;20417;-77
2023/10/30 05:46:31;;;;;;;7.93;1.52;;;;;;;8.62;100.00;99811.00;4896098;28;20062;-78
2023/10/30 05:48:59;;;;;;;6.55;1.60;;;;;;;8.63;100.00;99804.88;4898106;29;20063;-77
2023/10/30 05:51:26;;;;;;;10.98;1.70;;;;;;;8.63;100.00;99804.88;4909567;28;20062;-77
2023/10/30 05:53:54;;;;;;;7.13;1.73;;;;;;;8.62;100.00;99809.28;4935444;28;20055;-77
2023/10/30 05:56:21;;;;;;;5.35;1.75;;;;;;;8.62;100.00;99816.25;4892636;28;20413;-76
2023/10/30 05:58:49;;;;;;;7.55;1.45;;;;;;;8.61;100.00;99823.28;4853840;29;20390;-76
2023/10/30 06:01:16;;;;;;;6.82;1.48;;;;;;;8.60;100.00;99821.53;4927102;28;20832;-75
2023/10/30 06:03:44;;;;;;;9.10;1.45;;;;;;;8.59;100.00;99825.03;4903337;29;20047;-76
2023/10/30 06:06:11;;;;;;;9.90;1.98;;;;;;;8.57;100.00;99817.16;4910605;29;20039;-77
2023/10/30 06:08:39;;;;;;;4.25;1.75;;;;;;;8.56;100.00;99830.28;4901885;29;20051;-77
2023/10/30 06:11:06;;;;;;;12.30;2.42;;;;;;;8.54;100.00;99838.19;4892972;28;20048;-75
2023/10/30 06:13:34;;;;;;;6.38;1.48;;;;;;;8.53;100.00;99839.06;4887429;29;20047;-76
2023/10/30 06:16:02;;;;;;;7.60;2.13;;;;;;;8.53;100.00;99844.31;4928408;29;20482;-76
2023/10/30 06:18:29;;;;;;;5.70;1.48;;;;;;;8.52;100.00;99847.81;4928783;28;20038;-76
2023/10/30 06:20:59;;;;;;;6.80;1.75;;;;;;;8.51;100.00;99859.22;4912166;29;20046;-77
2023/10/30 06:23:26;;;;;;;9.45;1.73;;;;;;;8.51;100.00;99848.72;4921903;28;20085;-77
2023/10/30 06:25:54;;;;;;;13.20;2.53;;;;;;;8.51;100.00;99853.97;4929981;29;20047;-78
2023/10/30 06:28:21;;;;;;;13.07;2.00;;;;;;;8.49;100.00;99850.47;4861258;28;20066;-77
2023/10/30 06:30:50;;;;;;;8.98;2.63;;;;;;;8.50;100.00;99857.44;4929624;29;20054;-77
2023/10/30 06:33:17;;;;;;;10.35;1.67;;;;;;;8.48;100.00;99859.22;4907785;28;20044;-78
2023/10/30 06:35:45;;;;;;;9.52;2.05;;;;;;;8.50;100.00;99865.31;4911493;29;20415;-79
2023/10/30 06:38:12;;;;;;;5.93;1.70;;;;;;;8.49;100.00;99866.22;4905886;29;20096;-77
2023/10/30 06:40:40;;;;;;;11.98;1.98;;;;;;;8.50;100.00;99872.34;4923734;29;20397;-78
2023/10/30 06:43:07;;;;;;;11.50;2.97;;;;;;;8.50;100.00;99883.72;4887400;28;20078;-77
2023/10/30 06:45:35;;;;;;;8.18;2.10;;;;;;;8.50;100.00;99883.72;4903502;29;20417;-78
2023/10/30 06:48:02;;;;;;;7.97;2.38;;;;;;;8.50;100.00;99880.22;4925131;28;20094;-77
2023/10/30 06:50:30;;;;;;;12.52;2.28;;;;;;;8.51;100.00;99884.59;4899041;29;20054;-78
2023/10/30 06:52:58;;;;;;;12.10;1.70;;;;;;;8.53;100.00;99888.09;4900975;29;20055;-78
2023/10/30 06:55:25;;;;;;;11.30;4.05;;;;;;;8.55;100.00;99881.06;4918812;29;20043;-78
2023/10/30 06:57:52;;;;;;;5.63;1.80;;;;;;;8.57;100.00;99884.56;4930246;29;20051;-78
2023/10/30 07:00:20;;;;;;;12.50;2.60;;;;;;;8.59;100.00;99883.66;4897553;29;20066;-78
2023/10/30 07:02:48;;;;;;;13.05;2.47;;;;;;;8.65;100.00;99890.66;4944442;29;20054;-77
2023/10/30 07:05:15;;;;;;;7.47;1.90;;;;;;;8.68;100.00;99890.66;4918241;29;20047;-77
2023/10/30 07:07:43;;;;;;;9.48;2.65;;;;;;;8.75;100.00;99891.47;4906503;29;20043;-78
2023/10/30 07:10:10;;;;;;;6.75;1.92;;;;;;;8.81;100.00;99888.84;4932957;29;20776;-77
2023/10/30 07:12:38;;;;;;;10.00;2.33;;;;;;;8.86;100.00;99887.03;4922809;28;20054;-77
2023/10/30 07:15:06;;;;;;;10.27;2.30;;;;;;;8.90;100.00;99888.81;4882998;28;20058;-78
2023/10/30 07:17:33;;;;;;;5.60;1.75;;;;;;;8.94;100.00;99894.88;4892824;29;20067;-79
2023/10/30 07:20:03;;;;;;;14.02;2.55;;;;;;;9.00;100.00;99896.59;4934691;28;20052;-79
2023/10/30 07:22:31;;;;;;;9.32;2.03;;;;;;;9.04;100.00;99888.72;4896352;28;20052;-78
2023/10/30 07:25:00;;;;;;;14.73;2.67;;;;;;;9.10;100.00;99895.69;4930475;29;20416;-76
2023/10/30 07:27:27;;;;;;;4.95;1.55;;;;;;;9.16;100.00;99895.66;4898637;29;20051;-77
2023/10/30 07:29:55;;;;;;;9.07;1.88;;;;;;;9.21;100.00;99891.25;4854303;29;20056;-75
2023/10/30 07:32:22;;;;;;;8.48;1.80;;;;;;;9.29;100.00;99896.44;4929684;28;20063;-76
2023/10/30 07:34:49;;;;;;;7.60;2.30;;;;;;;9.36;100.00;99883.25;4907099;29;20048;-76
2023/10/30 07:37:17;;;;;;;8.23;1.98;;;;;;;9.46;100.00;99881.41;4882986;29;20819;-76
2023/10/30 07:39:44;;;;;;;8.90;2.15;;;;;;;9.56;100.00;99882.22;4930808;29;20047;-77
2023/10/30 07:42:12;;;;;;;10.02;2.50;;;;;;;9.64;100.00;99877.78;4903398;29;20063;-75
2023/10/30 07:44:39;;;;;;;10.70;2.13;;;;;;;9.72;100.00;99870.69;4935086;29;20051;-76
2023/10/30 07:47:07;;;;;;;8.30;2.20;;;;;;;9.81;100.00;99874.09;4880394;29;20066;-75
2023/10/30 07:49:34;;;;;;;7.20;1.88;;;;;;;9.88;100.00;99881.91;4888183;29;20060;-75
2023/10/30 07:52:01;;;;;;;8.32;2.05;;;;;;;9.95;100.00;99888.00;4892996;29;20036;-75
2023/10/30 07:54:29;;;;;;;8.60;1.85;;;;;;;10.02;100.00;99897.59;4936746;28;20056;-77
2023/10/30 07:56:56;;;;;;;8.73;2.50;;;;;;;10.10;100.00;99902.78;4900341;29;20043;-77
2023/10/30 07:59:23;;;;;;;10.15;2.28;;;;;;;10.17;100.00;99912.38;4911741;29;20044;-76
2023/10/30 08:01:51;;;;;;;7.20;1.90;;;;;;;10.25;100.00;99918.41;4873216;29;20051;-77
2023/10/30 08:04:18;;;;;;;11.40;2.03;;;;;;;10.36;100.00;99909.56;4919840;29;20059;-76
2023/10/30 08:06:45;;;;;;;8.95;1.95;;;;;;;10.43;100.00;99901.56;4900137;29;20043;-76
2023/10/30 08:09:15;;;;;;;13.90;2.55;;;;;;;10.53;100.00;99921.66;4885898;29;20048;-76
2023/10/30 08:11:43;;;;;;;14.43;1.87;;;;;;;10.60;100.00;99917.19;4916234;29;20056;-76
2023/10/30 08:14:10;;;;;;;8.40;2.20;;;;;;;10.68;100.00;99923.25;4889529;29;20059;-76
2023/10/30 08:16:38;;;;;;;10.38;2.58;;;;;;;10.75;100.00;99924.03;4852675;29;20043;-76
2023/10/30 08:19:05;;;;;;;9.57;2.08;;;;;;;10.82;100.00;99919.56;4910493;29;20067;-76
2023/10/30 08:21:32;;;;;;;4.75;1.80;;;;;;;10.85;100.00;99919.50;4909845;29;20070;-76
2023/10/30 08:23:59;;;;;;;9.30;2.17;;;;;;;10.88;100.00;99930.88;4878788;29;21593;-75
2023/10/30 08:26:29;;;;;;;8.13;2.00;;;;;;;10.91;100.00;99930.88;4945238;28;20063;-75
2023/10/30 08:28:56;;;;;;;9.07;1.60;;;;;;;10.96;100.00;99932.56;4922686;28;20070;-76
2023/10/30 08:31:23;;;;;;;6.30;1.73;;;;;;;10.99;100.00;99937.81;4930782;28;20039;-76
2023/10/30 08:33:50;;;;;;;8.15;1.88;;;;;;;11.01;100.00;99939.53;4885672;29;20050;-76
2023/10/30 08:36:22;;;;;;;11.43;2.25;;;;;;;11.03;100.00;99939.50;4916086;29;20055;-76
2023/10/30 08:38:49;;;;;;;11.75;1.80;;;;;;;11.07;100.00;99938.56;4917694;29;20062;-75
2023/10/30 08:41:19;;;;;;;10.68;1.88;;;;;;;11.10;100.00;99943.81;4929827;29;20043;-76
2023/10/30 08:43:48;;;;;;;6.28;1.73;;;;;;;11.13;100.00;99946.38;4877600;28;20066;-76
2023/10/30 08:46:18;;;;;;;12.05;2.10;;;;;;;11.16;100.00;99946.34;4934644;28;20074;-76
2023/10/30 08:48:46;;;;;;;5.88;1.73;;;;;;;11.21;100.00;99949.81;4900100;28;20059;-75
2023/10/30 08:51:14;;;;;;;9.55;2.10;;;;;;;11.25;100.00;99945.38;4924237;28;20059;-76
2023/10/30 08:53:41;;;;;;;14.95;2.53;;;;;;;11.30;100.00;99949.69;4913609;29;20054;-75
2023/10/30 08:56:10;;;;;;;9.27;1.83;;;;;;;11.35;100.00;99956.66;4921749;28;20039;-76
2023/10/30 08:58:37;;;;;;;11.07;2.22;;;;;;;11.40;100.00;99957.44;4900483;29;20056;-75
2023/10/30 09:01:05;;;;;;;12.45;1.88;;;;;;;11.45;100.00;99948.56;4924631;29;20043;-76
2023/10/30 09:03:32;;;;;;;8.73;1.90;;;;;;;11.51;100.00;99958.16;4904607;28;20043;-76
2023/10/30 09:06:00;;;;;;;7.63;1.70;;;;;;;11.53;100.00;99953.75;4913472;29;20082;-76
2023/10/30 09:08:27;;;;;;;10.85;2.28;;;;;;;11.59;100.00;99956.28;4920564;29;20055;-76
2023/10/30 09:10:55;;;;;;;7.43;1.75;;;;;;;11.63;100.00;99952.72;4927706;29;20055;-76
2023/10/30 09:13:22;;;;;;;9.30;2.05;;;;;;;11.69;100.00;99959.66;4909947;29;20051;-75
2023/10/30 09:15:50;;;;;;;8.32;1.83;;;;;;;11.76;100.00;99960.41;4915325;29;20043;-75
2023/10/30 09:18:18;;;;;;;11.77;2.00;;;;;;;11.81;100.00;99956.81;4885314;29;20059;-76
2023/10/30 09:20:45;;;;;;;11.85;2.20;;;;;;;11.86;100.00;99952.34;4945251;29;20055;-75
2023/10/30 09:23:12;;;;;;;7.85;1.83;;;;;;;11.93;100.00;99950.50;4914392;29;20066;-76
2023/10/30 09:25:40;;;;;;;10.90;2.00;;;;;;;11.98;100.00;99943.38;4880324;29;20068;-76
2023/10/30 09:28:07;;;;;;;10.95;2.40;;;;;;;12.03;100.00;99949.44;4936213;28;20055;-76
2023/10/30 09:30:34;;;;;;;8.50;2.63;;;;;;;12.01;100.00;99953.88;4910597;28;20039;-76
2023/10/30 09:33:03;;;;;;;6.07;1.80;;;;;;;11.99;100.00;99958.31;4902301;29;20047;-76
2023/10/30 09:35:31;;;;;;;6.90;2.20;;;;;;;11.98;100.00;99950.41;4903952;28;20424;-76
2023/10/30 09:37:59;;;;;;;9.40;2.17;;;;;;;12.00;100.00;99953.91;4915599;29;20481;-77
2023/10/30 09:40:26;;;;;;;9.50;2.28;;;;;;;12.05;100.00;99960.00;4888166;29;20560;-76
2023/10/30 09:42:55;;;;;;;11.18;2.25;;;;;;;12.08;100.00;99955.53;4932568;29;20048;-76
2023/10/30 09:45:26;;;;;;;7.65;1.98;;;;;;;12.09;100.00;99954.63;4892558;29;21087;-76
2023/10/30 09:47:56;;;;;;;6.55;1.35;;;;;;;12.09;100.00;99953.75;4929806;28;20035;-76
2023/10/30 09:50:25;;;;;;;8.98;1.70;;;;;;;12.10;100.00;99944.94;4883138;29;20493;-76
2023/10/30 09:52:53;;;;;;;7.13;1.73;;;;;;;12.14;100.00;99943.13;4927182;29;20058;-77
2023/10/30 09:55:24;;;;;;;7.80;2.10;;;;;;;12.15;100.00;99951.00;4936510;28;20046;-76
2023/10/30 09:57:54;;;;;;;5.97;1.63;;;;;;;12.18;100.00;99945.66;4945092;29;20040;-76
2023/10/30 10:00:22;;;;;;;7.20;1.67;;;;;;;12.24;100.00;99955.25;4908758;28;20051;-76
2023/10/30 10:02:49;;;;;;;16.00;3.35;;;;;;;12.31;100.00;99953.38;4920043;29;20043;-75
2023/10/30 10:05:18;;;;;;;8.80;2.42;;;;;;;12.36;100.00;99956.78;4870220;29;20055;-75
2023/10/30 10:07:46;;;;;;;10.45;2.22;;;;;;;12.45;100.00;99954.00;4928553;29;20052;-75
2023/10/30 10:10:17;;;;;;;9.77;1.90;;;;;;;12.48;100.00;99962.72;4936430;28;20042;-76
2023/10/30 10:12:50;;;;;;;6.30;2.17;;;;;;;12.56;100.00;99951.16;4943814;29;20508;-76
2023/10/30 10:15:20;;;;;;;7.38;1.70;;;;;;;12.61;100.00;99957.22;4934552;28;20389;-76
2023/10/30 10:17:51;;;;;;;8.85;1.60;;;;;;;12.67;100.00;99950.03;4919495;29;20523;-76
2023/10/30 10:20:21;;;;;;;6.18;1.80;;;;;;;12.75;100.00;99952.53;4912405;29;20414;-76
2023/10/30 10:22:49;;;;;;;5.80;1.60;;;;;;;12.80;100.00;99952.44;4855538;29;20059;-77
2023/10/30 10:25:18;;;;;;;4.78;1.20;;;;;;;12.84;100.00;99946.19;4926882;29;20051;-76
2023/10/30 10:27:49;;;;;;;11.00;1.67;;;;;;;12.90;100.00;99940.78;4904095;29;20044;-76
2023/10/30 10:30:22;;;;;;;9.90;1.88;;;;;;;12.98;100.00;99956.47;4902882;29;20047;-76
2023/10/30 10:32:50;;;;;;;11.80;1.58;;;;;;;13.02;100.00;99953.75;4857148;29;20040;-75
2023/10/30 10:35:17;;;;;;;6.82;2.05;;;;;;;13.05;100.00;99958.09;4920400;29;20086;-75
2023/10/30 10:37:45;;;;;;;5.75;1.33;;;;;;;13.07;100.00;99958.94;4864477;29;20043;-76
2023/10/30 10:40:16;;;;;;;8.13;1.65;;;;;;;13.08;100.00;99944.81;4888563;29;20066;-76
2023/10/30 10:42:44;;;;;;;6.57;1.45;;;;;;;13.06;100.00;99946.59;4898305;29;20067;-76
2023/10/30 10:45:13;;;;;;;10.30;3.20;;;;;;;13.04;100.00;99948.41;4933179;29;20048;-76
2023/10/30 10:47:40;;;;;;;7.25;1.48;;;;;;;13.00;100.00;99944.09;4898410;29;20052;-75
2023/10/30 10:50:08;;;;;;;5.75;1.35;;;;;;;12.99;100.00;99945.00;4902481;29;20047;-75
2023/10/30 10:52:39;;;;;;;6.82;1.42;;;;;;;12.98;100.00;99937.97;4877583;29;20043;-75
2023/10/30 10:55:07;;;;;;;4.60;1.60;;;;;;;12.97;100.00;99946.81;4927011;29;20058;-76
2023/10/30 10:57:45;;;;;;;5.63;1.90;;;;;;;12.96;100.00;99947.69;4905177;29;20543;-75
2023/10/30 11:00:15;;;;;;;12.32;1.50;;;;;;;12.94;100.00;99941.56;4902609;29;20064;-75
2023/10/30 11:02:47;;;;;;;5.20;2.23;;;;;;;12.93;100.00;99946.00;4908359;29;20054;-75
2023/10/30 11:05:16;;;;;;;7.53;1.30;;;;;;;12.93;100.00;99935.44;4906344;29;20056;-75
2023/10/30 11:07:46;;;;;;;6.10;1.25;;;;;;;12.94;100.00;99945.09;4872042;29;20048;-76
2023/10/30 11:10:23;;;;;;;7.38;2.22;;;;;;;12.97;100.00;99946.81;4919712;29;20045;-75
2023/10/30 11:13:12;;;;;;;9.40;1.80;;;;;;;12.98;100.00;99941.47;4885140;29;20074;-75
2023/10/30 11:15:52;;;;;;;12.43;2.38;;;;;;;13.02;100.00;99948.47;4925810;29;20043;-75
2023/10/30 11:18:23;;;;;;;11.25;2.00;;;;;;;13.12;100.00;99938.53;4915540;29;20047;-75
2023/10/30 11:21:14;;;;;;;6.13;1.50;;;;;;;13.23;100.00;99938.28;4897820;29;20067;-75
2023/10/30 11:23:44;;;;;;;4.70;1.30;;;;;;;13.37;100.00;99940.69;4852579;29;20059;-76
2023/10/30 11:26:36;;;;;;;9.63;2.40;;;;;;;13.41;100.00;99937.06;4931568;28;20051;-77
2023/10/30 11:29:27;;;;;;;12.63;2.55;;;;;;;13.40;100.00;99940.59;4899993;29;20047;-75
2023/10/30 11:32:01;;;;;;;11.98;1.85;;;;;;;13.35;100.00;99938.06;4894474;28;20055;-76
2023/10/30 11:34:33;;;;;;;7.95;1.35;;;;;;;13.35;100.00;99930.13;4911651;29;20047;-75